In Rescue
 
Open Full Screen Window  High Contrast Mode
Wind Gusting 00 knots
06
January 24, 2020 7:22 PM CST
Weather Information
Wind Direction
  350 °
Wind Speed
  06 kt (7 mph)
Wind Gust
  00 kt (0 mph)
Altimeter
29.99 in
Visibility
10 SM
Temperature
-01° C
30° F
Dewpoint
-03° C
27° F
Humidity
86%
1hr Rain Fall
00.00 in.
24hr Rain Fall
00.00 in.
Sky Condition
Overcast @ 1,300 ft
MVFR

METAR KROS 250122Z AUTO 35006KT 10SM OVC013 M01/M03 A2999 RMK AO2 T10131028

FAA Disclaimer: The data displayed is for advisory purposes only and is not to be used for flight planning or operations.